Sewickley, Pennsylvania
Current Conditions -  °F | °C
As of 5:51 AM on Friday 26 Dec 2014 (Local Time) from KPIT Reporting Station
Scattered Clouds Scattered Clouds  
Wind Chill: 33°   Ceiling: Unl
Heat Index: 33°   Visibility: 10mi
Dew Point: 28°   Wind: 3mph
Humidity: 82%   Direction: 170°S
Pressure: 30.25"   Gusts: NA
Location:  40.54°N, 80.18°W
Report Text: KPIT 261051Z 17003KT 10SM SCT023 01/M02 A3025 RMK AO2 SLP262 T00061022
Loading
Personal Weather Stations






























Interactive Weather Map New forecast layout! Learn more

10-Day Weather Forecast

Advertisements
Track Severe Weather on mobile